Time;durP1;ratioP1;P1;durP2;ratioP2;P2;SDS_P1;SDS_P2;PMS_P1;PMS_P2;Temp;Humidity;BMP_temperature;BMP_pressure;BME280_temperature;BME280_humidity;BME280_pressure;Samples;Min_cycle;Max_cycle;Signal;HPM_P1;HPM_P2
2023/03/13 00:01:28;;;;;;;1.90;1.80;;;;;;;6.93;100.00;96412.16;5074503;28;20222;-58
2023/03/13 00:03:55;;;;;;;2.47;2.27;;;;;;;6.91;100.00;96409.63;5078340;28;20643;-59
2023/03/13 00:06:23;;;;;;;3.10;1.90;;;;;;;6.92;100.00;96413.94;5078656;28;20198;-58
2023/03/13 00:08:50;;;;;;;2.37;1.83;;;;;;;6.96;100.00;96412.72;5071215;28;20524;-58
2023/03/13 00:11:16;;;;;;;2.67;1.60;;;;;;;7.00;100.00;96408.88;5070812;28;20206;-59
2023/03/13 00:13:43;;;;;;;2.90;1.50;;;;;;;7.06;100.00;96411.94;5071534;28;20202;-59
2023/03/13 00:16:11;;;;;;;4.10;1.40;;;;;;;7.06;100.00;96411.94;5070977;28;20252;-59
2023/03/13 00:18:37;;;;;;;1.40;1.10;;;;;;;7.12;100.00;96404.38;5070653;28;20214;-59
2023/03/13 00:21:06;;;;;;;2.53;1.27;;;;;;;7.20;100.00;96409.84;5070723;28;20218;-58
2023/03/13 00:23:35;;;;;;;1.97;1.10;;;;;;;7.26;100.00;96398.00;5071188;28;20283;-59
2023/03/13 00:26:02;;;;;;;1.47;1.10;;;;;;;7.30;100.00;96394.97;5071306;28;20207;-58
2023/03/13 00:28:30;;;;;;;1.03;0.90;;;;;;;7.45;100.00;96382.31;5071024;28;20560;-59
2023/03/13 00:31:03;;;;;;;0.87;0.87;;;;;;;7.58;100.00;96387.38;5070583;28;20194;-58
2023/03/13 00:33:31;;;;;;;1.80;1.13;;;;;;;7.63;100.00;96380.75;5072088;28;20206;-58
2023/03/13 00:35:59;;;;;;;1.20;1.10;;;;;;;7.68;100.00;96375.94;5072061;28;20210;-59
2023/03/13 00:38:25;;;;;;;1.10;0.70;;;;;;;7.70;100.00;96379.25;5072204;28;20203;-57
2023/03/13 00:41:00;;;;;;;0.83;0.83;;;;;;;7.71;100.00;96378.31;5070820;28;20230;-59
2023/03/13 00:43:26;;;;;;;1.60;0.87;;;;;;;7.71;100.00;96374.84;5071176;28;20202;-59
2023/03/13 00:45:53;;;;;;;1.07;1.00;;;;;;;7.69;100.00;96388.09;5082652;28;20198;-58
2023/03/13 00:48:19;;;;;;;2.93;0.97;;;;;;;7.70;100.00;96379.25;5082312;28;20205;-58
2023/03/13 00:50:46;;;;;;;2.53;1.00;;;;;;;7.79;100.00;96378.47;5077866;28;20198;-60
2023/03/13 00:53:12;;;;;;;1.90;1.07;;;;;;;7.90;100.00;96382.81;5073902;28;20221;-59
2023/03/13 00:55:38;;;;;;;0.80;0.80;;;;;;;8.05;100.00;96375.34;5072041;28;20206;-58
2023/03/13 00:58:06;;;;;;;3.50;0.80;;;;;;;8.14;100.00;96377.22;5071519;28;20206;-59
2023/03/13 01:00:33;;;;;;;0.70;0.70;;;;;;;8.21;100.00;96376.53;5070928;28;20221;-59
2023/03/13 01:02:59;;;;;;;1.23;0.77;;;;;;;8.25;100.00;96382.38;5070675;28;20220;-57
2023/03/13 01:05:26;;;;;;;0.83;0.83;;;;;;;8.30;100.00;96383.66;5070063;28;20217;-58
2023/03/13 01:07:52;;;;;;;0.63;0.50;;;;;;;8.36;100.00;96374.38;5071015;28;20211;-59
2023/03/13 01:10:19;;;;;;;1.23;0.73;;;;;;;8.40;100.00;96375.75;5073315;28;20207;-57
2023/03/13 01:12:45;;;;;;;1.80;1.00;;;;;;;8.46;100.00;96365.53;5074782;28;20214;-58
2023/03/13 01:15:13;;;;;;;1.03;0.60;;;;;;;8.51;100.00;96359.81;5075539;28;20210;-59
2023/03/13 01:17:40;;;;;;;1.70;0.93;;;;;;;8.55;100.00;96355.94;5073735;28;20213;-58
2023/03/13 01:20:08;;;;;;;1.30;0.70;;;;;;;8.56;100.00;96360.25;5070708;28;20234;-58
2023/03/13 01:22:35;;;;;;;1.40;1.03;;;;;;;8.58;100.00;96358.31;5070805;28;20214;-58
2023/03/13 01:25:01;;;;;;;1.40;1.00;;;;;;;8.56;100.00;96368.16;5070659;28;20561;-59
2023/03/13 01:27:28;;;;;;;1.03;0.97;;;;;;;8.58;100.00;96353.03;5078505;28;20190;-59
2023/03/13 01:29:55;;;;;;;0.67;0.67;;;;;;;8.60;100.00;96350.28;5094358;28;20201;-58
2023/03/13 01:32:23;;;;;;;2.60;1.00;;;;;;;8.64;100.00;96343.75;5096334;28;20174;-59
2023/03/13 01:34:49;;;;;;;1.17;1.00;;;;;;;8.61;100.00;96350.13;5071297;28;20203;-57
2023/03/13 01:37:16;;;;;;;0.50;0.50;;;;;;;8.59;100.00;96343.31;5070003;28;20213;-58
2023/03/13 01:39:42;;;;;;;0.70;0.70;;;;;;;8.58;100.00;96347.75;5070665;28;20207;-57
2023/03/13 01:42:09;;;;;;;1.17;0.80;;;;;;;8.55;100.00;96345.41;5070101;28;20206;-58
2023/03/13 01:44:50;;;;;;;1.93;0.70;;;;;;;8.58;100.00;96337.22;5070078;28;20202;-58
2023/03/13 01:47:16;;;;;;;0.73;0.60;;;;;;;8.57;100.00;96338.22;5070342;28;20191;-58
2023/03/13 01:49:45;;;;;;;0.90;0.77;;;;;;;8.57;100.00;96330.31;5070769;28;20237;-58
2023/03/13 01:52:14;;;;;;;1.07;0.97;;;;;;;8.55;100.00;96329.59;5073046;28;20198;-58
2023/03/13 01:54:44;;;;;;;0.73;0.50;;;;;;;8.56;100.00;96333.06;5073644;28;20199;-58
2023/03/13 01:57:13;;;;;;;1.90;0.73;;;;;;;8.52;100.00;96321.97;5073807;28;20202;-59
2023/03/13 01:59:42;;;;;;;0.87;0.80;;;;;;;8.49;100.00;96317.81;5074078;28;20206;-59
2023/03/13 02:02:09;;;;;;;1.63;0.90;;;;;;;8.44;100.00;96308.63;5073793;28;20190;-58
2023/03/13 02:04:38;;;;;;;1.47;1.00;;;;;;;8.41;100.00;96314.19;5073399;28;20229;-58
2023/03/13 02:07:10;;;;;;;2.47;0.60;;;;;;;8.37;100.00;96312.78;5073550;28;20272;-58
2023/03/13 02:09:38;;;;;;;1.33;0.63;;;;;;;8.31;100.00;96308.09;5073739;28;20226;-59
2023/03/13 02:12:09;;;;;;;0.77;0.63;;;;;;;8.25;100.00;96305.97;5073510;28;20229;-58
2023/03/13 02:14:38;;;;;;;0.70;0.70;;;;;;;8.25;100.00;96309.44;5073488;28;20203;-59
2023/03/13 02:17:05;;;;;;;0.90;0.80;;;;;;;8.23;100.00;96310.53;5073397;28;20206;-58
2023/03/13 02:19:36;;;;;;;1.20;1.10;;;;;;;8.19;100.00;96312.59;5072308;28;20214;-59
2023/03/13 02:22:09;;;;;;;1.20;0.93;;;;;;;8.13;100.00;96299.16;5073293;28;20218;-58
2023/03/13 02:24:38;;;;;;;2.30;1.50;;;;;;;8.07;100.00;96297.91;5073198;28;20553;-64
2023/03/13 02:27:08;;;;;;;1.63;1.23;;;;;;;8.10;100.00;96296.81;5072250;28;20199;-58
2023/03/13 02:29:35;;;;;;;1.93;1.10;;;;;;;8.01;100.00;96304.53;5073656;28;20263;-58
2023/03/13 02:32:02;;;;;;;0.80;0.80;;;;;;;8.00;100.00;96300.25;5073121;28;20203;-58
2023/03/13 02:34:31;;;;;;;1.27;1.17;;;;;;;7.99;100.00;96298.59;5073137;28;20210;-58
2023/03/13 02:36:58;;;;;;;2.00;1.40;;;;;;;7.99;100.00;96298.59;5072527;28;20203;-58
2023/03/13 02:39:25;;;;;;;1.07;1.07;;;;;;;7.97;100.00;96289.97;5072837;28;20218;-58
2023/03/13 02:41:51;;;;;;;1.63;0.90;;;;;;;7.91;100.00;96280.00;5072792;28;20241;-58
2023/03/13 02:44:19;;;;;;;3.33;1.13;;;;;;;7.96;100.00;96272.53;5072775;28;20198;-58
2023/03/13 02:46:47;;;;;;;1.53;1.10;;;;;;;8.05;100.00;96259.50;5072205;28;20202;-57
2023/03/13 02:49:22;;;;;;;1.20;0.67;;;;;;;8.11;100.00;96253.72;5073005;28;20558;-58
2023/03/13 02:51:48;;;;;;;3.57;1.10;;;;;;;8.29;100.00;96231.00;5072356;28;20523;-57
2023/03/13 02:54:18;;;;;;;0.77;0.77;;;;;;;8.36;100.00;96235.56;5073489;28;20210;-59
2023/03/13 02:56:48;;;;;;;1.13;1.03;;;;;;;8.47;100.00;96243.31;5072379;28;20213;-58
2023/03/13 02:59:15;;;;;;;0.70;0.70;;;;;;;8.51;100.00;96235.97;5072916;28;20199;-58
2023/03/13 03:01:42;;;;;;;1.00;0.90;;;;;;;8.65;100.00;96246.06;5070936;28;20587;-58
2023/03/13 03:04:09;;;;;;;0.93;0.83;;;;;;;8.69;100.00;96239.56;5071657;28;20305;-59
2023/03/13 03:06:36;;;;;;;1.93;0.80;;;;;;;8.77;98.71;96234.41;5071727;28;20214;-59
2023/03/13 03:09:03;;;;;;;0.80;0.80;;;;;;;8.86;97.67;96235.34;5072592;28;20628;-58
2023/03/13 03:11:29;;;;;;;0.53;0.53;;;;;;;8.92;97.69;96235.63;5079225;28;20220;-59
2023/03/13 03:13:55;;;;;;;0.67;0.50;;;;;;;8.96;97.33;96247.53;5086967;28;20585;-60
2023/03/13 03:16:22;;;;;;;2.63;0.83;;;;;;;8.98;98.61;96234.22;5079213;28;20207;-59
2023/03/13 03:18:50;;;;;;;1.80;0.50;;;;;;;9.02;99.73;96240.03;5076466;28;20210;-59
2023/03/13 03:21:16;;;;;;;0.90;0.70;;;;;;;9.06;98.70;96241.41;5074008;28;20229;-58
2023/03/13 03:23:43;;;;;;;1.33;0.63;;;;;;;9.04;97.14;96227.53;5097179;28;20179;-58
2023/03/13 03:26:09;;;;;;;0.63;0.60;;;;;;;9.07;96.08;96233.34;5086795;28;20194;-58
2023/03/13 03:28:36;;;;;;;1.40;0.77;;;;;;;9.11;96.80;96240.00;5095700;28;20194;-57
2023/03/13 03:31:04;;;;;;;1.23;0.70;;;;;;;9.09;97.86;96233.22;5094216;28;20201;-59
2023/03/13 03:33:30;;;;;;;1.57;0.60;;;;;;;9.11;100.00;96244.44;5078925;28;20213;-58
2023/03/13 03:36:01;;;;;;;0.63;0.63;;;;;;;9.07;99.17;96243.91;5070975;28;20455;-58
2023/03/13 03:38:27;;;;;;;0.60;0.60;;;;;;;9.07;96.35;96238.63;5071343;28;20630;-58
2023/03/13 03:40:54;;;;;;;0.73;0.70;;;;;;;9.05;95.76;96240.59;5072291;28;20233;-59
2023/03/13 03:43:20;;;;;;;1.97;0.70;;;;;;;9.09;97.83;96236.69;5071837;28;20202;-58
2023/03/13 03:45:47;;;;;;;0.87;0.87;;;;;;;9.07;98.44;96241.25;5071572;28;20577;-58
2023/03/13 03:48:13;;;;;;;0.70;0.70;;;;;;;9.09;98.51;96231.41;5071535;28;20209;-58
2023/03/13 03:50:39;;;;;;;1.10;0.80;;;;;;;9.06;97.55;96241.41;5071294;28;20248;-59
2023/03/13 03:53:08;;;;;;;0.70;0.70;;;;;;;9.06;97.25;96244.91;5071054;28;20202;-57
2023/03/13 03:55:35;;;;;;;0.87;0.60;;;;;;;9.05;97.65;96250.31;5071522;28;20195;-58
2023/03/13 03:58:01;;;;;;;1.33;0.60;;;;;;;9.03;100.00;96257.53;5071509;28;20198;-58
2023/03/13 04:00:28;;;;;;;0.97;0.90;;;;;;;9.02;99.87;96251.44;5071279;28;20203;-58
2023/03/13 04:02:54;;;;;;;2.23;0.90;;;;;;;8.98;100.00;96250.88;5071111;28;20194;-58
2023/03/13 04:05:21;;;;;;;1.07;0.90;;;;;;;9.02;100.00;96243.50;5070899;28;20198;-57
2023/03/13 04:07:51;;;;;;;1.23;0.93;;;;;;;8.96;100.00;96252.00;5071342;28;20217;-59
2023/03/13 04:10:19;;;;;;;1.37;0.97;;;;;;;8.96;100.00;96237.00;5071413;28;20214;-57
2023/03/13 04:12:45;;;;;;;0.83;0.83;;;;;;;8.88;100.00;96228.97;5071242;28;20206;-58
2023/03/13 04:15:12;;;;;;;0.73;0.73;;;;;;;8.92;100.00;96233.00;5071266;28;20206;-58
2023/03/13 04:17:38;;;;;;;1.73;0.90;;;;;;;8.90;100.00;96237.56;5070611;28;20203;-58
2023/03/13 04:20:07;;;;;;;0.80;0.80;;;;;;;8.87;100.00;96242.28;5070795;28;20194;-58
2023/03/13 04:22:33;;;;;;;0.93;0.70;;;;;;;8.86;100.00;96224.81;5071072;28;20228;-59
2023/03/13 04:25:00;;;;;;;1.03;0.93;;;;;;;8.86;100.00;96230.06;5071733;28;20209;-58
2023/03/13 04:27:28;;;;;;;0.70;0.70;;;;;;;8.86;100.00;96225.63;5070251;28;20218;-58
2023/03/13 04:29:54;;;;;;;1.07;0.63;;;;;;;8.84;100.00;96227.59;5071519;28;20206;-58
2023/03/13 04:32:20;;;;;;;1.40;0.67;;;;;;;8.84;100.00;96227.59;5070256;28;20206;-58
2023/03/13 04:34:47;;;;;;;0.80;0.80;;;;;;;8.87;100.00;96206.22;5071269;28;20611;-58
2023/03/13 04:37:13;;;;;;;1.30;0.70;;;;;;;8.90;100.00;96208.56;5070712;28;20206;-58
2023/03/13 04:39:40;;;;;;;1.57;0.67;;;;;;;8.90;100.00;96208.56;5071781;28;20206;-59
2023/03/13 04:42:07;;;;;;;0.30;0.30;;;;;;;8.89;100.00;96206.88;5072152;28;20299;-59
2023/03/13 04:44:34;;;;;;;1.23;0.63;;;;;;;8.92;100.00;96205.78;5072602;28;20206;-59
2023/03/13 04:47:01;;;;;;;0.80;0.67;;;;;;;8.97;100.00;96206.19;5071132;28;20214;-59
2023/03/13 04:49:27;;;;;;;0.97;0.63;;;;;;;8.99;100.00;96201.59;5070709;28;20257;-58
2023/03/13 04:51:54;;;;;;;0.70;0.70;;;;;;;9.08;100.00;96200.72;5070718;28;20217;-59
2023/03/13 04:54:20;;;;;;;1.07;0.60;;;;;;;9.19;98.37;96199.72;5094233;28;20191;-59
2023/03/13 04:56:46;;;;;;;1.07;0.80;;;;;;;9.24;99.09;96203.59;5094488;28;20253;-58
2023/03/13 04:59:14;;;;;;;1.80;0.83;;;;;;;9.31;97.95;96209.13;5073845;28;20559;-59
2023/03/13 05:01:42;;;;;;;0.60;0.60;;;;;;;9.35;96.71;96208.66;5071115;28;20289;-58
2023/03/13 05:04:09;;;;;;;0.70;0.70;;;;;;;9.40;96.95;96209.06;5071817;28;20624;-59
2023/03/13 05:06:36;;;;;;;1.23;0.70;;;;;;;9.46;96.04;96216.38;5070259;28;21092;-58
2023/03/13 05:09:03;;;;;;;1.03;0.70;;;;;;;9.54;94.11;96213.03;5073799;28;20268;-58
2023/03/13 05:11:30;;;;;;;0.60;0.60;;;;;;;9.58;93.96;96211.75;5094168;28;20684;-57
2023/03/13 05:13:56;;;;;;;1.50;0.80;;;;;;;9.62;92.37;96207.84;5096220;28;20178;-59
2023/03/13 05:16:25;;;;;;;1.67;0.83;;;;;;;9.62;92.32;96207.84;5079305;28;20210;-58
2023/03/13 05:18:53;;;;;;;1.07;0.80;;;;;;;9.66;93.91;96211.84;5071060;28;20203;-57
2023/03/13 05:21:19;;;;;;;0.90;0.83;;;;;;;9.67;92.10;96205.56;5074010;28;20218;-58
2023/03/13 05:23:45;;;;;;;1.13;0.70;;;;;;;9.71;90.44;96208.75;5070637;28;20210;-59
2023/03/13 05:26:12;;;;;;;0.50;0.50;;;;;;;9.73;91.54;96207.66;5071734;28;20560;-58
2023/03/13 05:28:38;;;;;;;1.73;0.80;;;;;;;9.78;88.45;96196.63;5074606;28;20210;-58
2023/03/13 05:31:05;;;;;;;0.97;0.90;;;;;;;9.79;89.12;96200.94;5073621;28;20198;-58
2023/03/13 05:33:31;;;;;;;0.67;0.67;;;;;;;9.77;89.96;96190.53;5074405;28;20199;-58
2023/03/13 05:35:59;;;;;;;0.60;0.60;;;;;;;9.77;92.83;96194.97;5073871;28;20210;-58
2023/03/13 05:38:25;;;;;;;0.83;0.70;;;;;;;9.74;93.34;96196.09;5085252;28;20203;-58
2023/03/13 05:40:52;;;;;;;1.43;0.80;;;;;;;9.72;93.13;96190.13;5085302;28;20199;-58
2023/03/13 05:43:18;;;;;;;1.67;0.80;;;;;;;9.70;96.57;96189.47;5081112;28;20214;-58
2023/03/13 05:45:45;;;;;;;1.50;0.80;;;;;;;9.64;97.15;96195.31;5077951;28;20546;-58
2023/03/13 05:48:11;;;;;;;1.83;1.00;;;;;;;9.61;98.84;96192.97;5074997;28;20263;-58
2023/03/13 05:50:38;;;;;;;1.10;0.80;;;;;;;9.55;99.88;96184.81;5073706;28;20253;-58
2023/03/13 05:53:05;;;;;;;4.57;1.20;;;;;;;9.49;96.71;96176.50;5074040;28;20206;-58
2023/03/13 05:55:32;;;;;;;0.87;0.77;;;;;;;9.48;93.45;96192.50;5074140;28;20198;-58
2023/03/13 05:57:59;;;;;;;1.03;0.90;;;;;;;9.49;94.63;96188.91;5074211;28;20207;-58
2023/03/13 06:00:26;;;;;;;1.27;1.10;;;;;;;9.47;93.71;96188.19;5073485;28;20518;-59
2023/03/13 06:02:52;;;;;;;1.23;0.70;;;;;;;9.49;94.64;96176.50;5072737;28;20535;-58
2023/03/13 06:05:19;;;;;;;0.73;0.73;;;;;;;9.51;95.19;96181.66;5073507;28;20210;-58
2023/03/13 06:07:45;;;;;;;0.83;0.77;;;;;;;9.52;97.99;96179.84;5073258;28;20654;-58
2023/03/13 06:10:13;;;;;;;2.00;1.07;;;;;;;9.46;97.76;96171.53;5073833;28;20206;-57
2023/03/13 06:12:39;;;;;;;0.80;0.80;;;;;;;9.48;98.09;96168.75;5072765;28;20614;-58
2023/03/13 06:15:08;;;;;;;1.07;1.07;;;;;;;9.44;98.34;96176.13;5074046;28;20206;-58
2023/03/13 06:17:35;;;;;;;1.07;0.80;;;;;;;9.48;99.47;96179.31;5073667;28;20210;-58
2023/03/13 06:20:01;;;;;;;1.33;0.80;;;;;;;9.49;99.22;96173.06;5073548;28;20214;-58
2023/03/13 06:22:29;;;;;;;3.13;0.93;;;;;;;9.45;99.80;96169.88;5073322;28;20214;-58
2023/03/13 06:24:56;;;;;;;3.13;1.07;;;;;;;9.48;97.89;96169.59;5074211;28;20542;-58
2023/03/13 06:27:23;;;;;;;1.00;0.90;;;;;;;9.52;100.00;96170.13;5073278;28;20203;-57
2023/03/13 06:29:50;;;;;;;1.03;0.90;;;;;;;9.59;99.10;96173.00;5073071;28;20202;-58
2023/03/13 06:32:16;;;;;;;1.80;1.17;;;;;;;9.63;99.04;96171.72;5072561;28;20207;-58
2023/03/13 06:34:43;;;;;;;0.97;0.70;;;;;;;9.64;98.79;96168.91;5072267;28;20645;-58
2023/03/13 06:37:09;;;;;;;3.60;1.00;;;;;;;9.66;95.78;96166.97;5072059;28;20198;-58
2023/03/13 06:39:36;;;;;;;1.57;1.10;;;;;;;9.74;96.59;96174.97;5073267;28;20214;-58
2023/03/13 06:42:02;;;;;;;3.20;1.13;;;;;;;9.79;96.14;96169.22;5072275;28;20219;-58
2023/03/13 06:44:30;;;;;;;1.50;1.33;;;;;;;9.82;96.14;96169.78;5072098;28;20234;-58
2023/03/13 06:46:56;;;;;;;2.30;1.10;;;;;;;9.84;95.94;96173.09;5071989;28;20222;-58
2023/03/13 06:49:23;;;;;;;3.67;1.30;;;;;;;9.95;93.45;96169.41;5071881;28;20543;-57
2023/03/13 06:51:49;;;;;;;1.00;1.00;;;;;;;10.15;87.30;96164.81;5071762;28;20207;-58
2023/03/13 06:54:15;;;;;;;1.57;0.70;;;;;;;10.46;85.69;96161.63;5072914;28;20202;-58
2023/03/13 06:56:42;;;;;;;1.23;0.93;;;;;;;10.58;84.56;96148.16;5071914;28;20214;-57
2023/03/13 06:59:08;;;;;;;1.00;0.80;;;;;;;10.75;83.71;96139.31;5072249;28;20639;-59
2023/03/13 07:01:36;;;;;;;0.60;0.60;;;;;;;10.91;81.72;96140.25;5071560;28;20202;-59
2023/03/13 07:04:03;;;;;;;0.93;0.80;;;;;;;11.03;81.72;96127.56;5072302;28;20650;-58
2023/03/13 07:06:29;;;;;;;0.80;0.80;;;;;;;11.17;80.62;96123.50;5072493;28;20217;-58
2023/03/13 07:08:56;;;;;;;1.27;0.90;;;;;;;11.27;81.80;96109.16;5072507;28;20195;-59
2023/03/13 07:11:23;;;;;;;0.93;0.80;;;;;;;11.36;81.10;96123.25;5072073;28;20199;-59
2023/03/13 07:13:50;;;;;;;2.03;0.87;;;;;;;11.56;78.57;96126.44;5073157;28;20203;-59
2023/03/13 07:16:17;;;;;;;1.37;0.60;;;;;;;11.69;78.65;96132.13;5072224;28;20203;-58
2023/03/13 07:18:46;;;;;;;1.17;1.03;;;;;;;11.81;76.94;96144.91;5072136;28;20242;-57
2023/03/13 07:21:13;;;;;;;1.90;1.20;;;;;;;11.89;77.23;96131.69;5071665;28;20214;-60
2023/03/13 07:23:39;;;;;;;1.40;0.97;;;;;;;11.98;78.01;96136.00;5071674;28;20227;-58
2023/03/13 07:26:08;;;;;;;1.10;0.70;;;;;;;12.03;78.03;96146.13;5071674;28;20559;-58
2023/03/13 07:28:35;;;;;;;1.30;1.10;;;;;;;12.16;76.88;96142.97;5072644;28;20222;-58
2023/03/13 07:31:06;;;;;;;2.80;1.00;;;;;;;12.27;76.42;96155.91;5072257;28;20229;-58
2023/03/13 07:33:32;;;;;;;0.83;0.83;;;;;;;12.43;73.77;96161.22;5072175;28;20199;-59
2023/03/13 07:36:00;;;;;;;0.70;0.70;;;;;;;12.53;72.63;96142.47;5071717;28;20205;-59
2023/03/13 07:38:27;;;;;;;0.50;0.50;;;;;;;12.60;73.16;96154.91;5071712;28;20862;-57
2023/03/13 07:40:56;;;;;;;0.87;0.80;;;;;;;12.69;74.12;96169.81;5071798;28;20208;-56
2023/03/13 07:43:22;;;;;;;1.50;0.80;;;;;;;12.80;74.12;96169.47;5071486;28;20298;-57
2023/03/13 07:45:54;;;;;;;0.63;0.63;;;;;;;12.92;74.90;96162.81;5070704;28;20264;-57
2023/03/13 07:48:21;;;;;;;0.97;0.70;;;;;;;13.07;72.26;96154.16;5069784;28;20218;-58
2023/03/13 07:50:47;;;;;;;0.57;0.57;;;;;;;13.31;72.72;96160.25;5070609;28;20205;-57
2023/03/13 07:53:19;;;;;;;1.17;1.00;;;;;;;13.49;70.63;96160.03;5070533;28;20202;-57
2023/03/13 07:55:52;;;;;;;1.30;0.60;;;;;;;13.61;67.61;96155.97;5070909;28;20198;-57
2023/03/13 07:58:18;;;;;;;0.83;0.70;;;;;;;13.79;66.36;96153.88;5071328;28;20198;-57
2023/03/13 08:00:45;;;;;;;0.90;0.90;;;;;;;13.86;67.02;96146.84;5071346;28;20218;-56
2023/03/13 08:03:11;;;;;;;0.98;0.90;;;;;;;13.90;65.68;96148.16;5072130;28;20241;-57
2023/03/13 08:05:38;;;;;;;0.90;0.90;;;;;;;14.04;66.41;96143.91;5082719;28;20228;-56
2023/03/13 08:08:04;;;;;;;1.17;0.70;;;;;;;14.18;65.41;96131.69;5077647;28;20202;-58
2023/03/13 08:10:32;;;;;;;0.93;0.70;;;;;;;14.35;66.78;96139.41;5073061;28;20768;-57
2023/03/13 08:12:58;;;;;;;0.80;0.80;;;;;;;14.42;65.37;96136.84;5071850;28;20543;-56
2023/03/13 08:15:25;;;;;;;0.73;0.73;;;;;;;14.54;67.42;96129.28;5071737;28;20213;-57
2023/03/13 08:17:51;;;;;;;0.70;0.70;;;;;;;14.57;65.22;96140.38;5072086;28;20206;-57
2023/03/13 08:20:19;;;;;;;0.68;0.68;;;;;;;14.51;63.97;96138.44;5070802;28;20214;-56
2023/03/13 08:22:46;;;;;;;0.82;0.82;;;;;;;14.46;63.05;96135.47;5071045;28;20226;-57
2023/03/13 08:25:13;;;;;;;2.17;0.80;;;;;;;14.59;62.87;96132.22;5070950;28;21424;-56
2023/03/13 08:27:41;;;;;;;1.27;0.98;;;;;;;14.64;64.45;96125.34;5071696;28;20202;-57
2023/03/13 08:30:08;;;;;;;0.70;0.63;;;;;;;14.78;64.20;96124.53;5071664;28;20540;-58
2023/03/13 08:32:35;;;;;;;0.90;0.75;;;;;;;14.84;63.51;96121.16;5071527;28;20221;-57
2023/03/13 08:35:02;;;;;;;0.70;0.70;;;;;;;14.88;62.55;96117.13;5082232;28;20198;-57
2023/03/13 08:37:28;;;;;;;2.20;0.85;;;;;;;14.94;63.44;96111.09;5094039;28;20206;-56
2023/03/13 08:39:55;;;;;;;1.13;0.93;;;;;;;15.04;62.34;96104.66;5080731;28;20207;-57
2023/03/13 08:42:22;;;;;;;0.70;0.70;;;;;;;15.16;63.28;96103.19;5070523;28;20229;-57
2023/03/13 08:44:50;;;;;;;0.45;0.45;;;;;;;15.32;62.50;96102.97;5070678;28;20198;-57
2023/03/13 08:47:17;;;;;;;0.50;0.50;;;;;;;15.43;59.61;96107.84;5071358;28;20202;-57
2023/03/13 08:49:43;;;;;;;0.57;0.57;;;;;;;15.46;60.07;96096.81;5073621;28;20259;-56
2023/03/13 08:52:09;;;;;;;1.05;0.77;;;;;;;15.51;59.97;96093.63;5089492;28;20183;-55
2023/03/13 08:54:36;;;;;;;1.90;1.20;;;;;;;15.72;60.50;96081.16;5095204;28;20179;-57
2023/03/13 08:57:03;;;;;;;3.92;1.35;;;;;;;15.63;59.39;96081.44;5086607;28;20211;-57
2023/03/13 08:59:29;;;;;;;2.35;1.15;;;;;;;15.58;59.97;96086.53;5072003;28;20198;-57
2023/03/13 09:01:57;;;;;;;1.58;0.80;;;;;;;15.38;59.70;96086.25;5074168;28;20248;-57
2023/03/13 09:04:24;;;;;;;1.35;1.13;;;;;;;15.55;59.59;96082.41;5075111;28;20202;-57
2023/03/13 09:06:50;;;;;;;3.35;1.17;;;;;;;15.53;59.52;96086.25;5080794;28;20224;-57
2023/03/13 09:09:17;;;;;;;0.80;0.80;;;;;;;15.50;60.30;96076.81;5080351;28;20207;-57
2023/03/13 09:11:43;;;;;;;0.70;0.70;;;;;;;15.35;59.48;96079.47;5078175;28;20202;-57
2023/03/13 09:14:10;;;;;;;0.70;0.68;;;;;;;15.63;61.72;96062.78;5074541;28;20226;-57
2023/03/13 09:16:36;;;;;;;0.60;0.60;;;;;;;15.80;60.01;96059.69;5074339;28;20206;-57
2023/03/13 09:19:04;;;;;;;1.73;0.65;;;;;;;16.00;59.46;96057.25;5073828;28;20202;-57
2023/03/13 09:21:32;;;;;;;1.15;0.80;;;;;;;16.12;58.16;96052.22;5074295;28;20236;-57
2023/03/13 09:23:59;;;;;;;2.25;0.82;;;;;;;16.41;56.67;96047.53;5074257;28;20237;-57
2023/03/13 09:26:26;;;;;;;1.20;1.10;;;;;;;16.52;56.36;96037.34;5091859;28;20179;-57
2023/03/13 09:28:53;;;;;;;2.25;1.55;;;;;;;17.03;55.95;96037.91;5099511;28;20209;-57
2023/03/13 09:31:21;;;;;;;1.50;1.02;;;;;;;17.56;55.52;96037.16;5084883;28;20214;-57
2023/03/13 09:33:48;;;;;;;2.88;0.70;;;;;;;17.55;52.93;96032.78;5073053;28;20216;-58
2023/03/13 09:36:16;;;;;;;0.70;0.70;;;;;;;17.90;53.38;96022.81;5072784;28;20203;-58
2023/03/13 09:38:43;;;;;;;0.85;0.85;;;;;;;18.43;53.03;96026.34;5073297;28;20194;-56
2023/03/13 09:41:21;;;;;;;0.80;0.80;;;;;;;18.13;51.34;96022.44;5074431;28;20546;-58
2023/03/13 09:43:51;;;;;;;1.77;0.80;;;;;;;18.20;51.71;96018.75;5073995;28;20658;-57
2023/03/13 09:46:22;;;;;;;0.70;0.70;;;;;;;18.39;52.40;96019.75;5074348;28;20213;-57
2023/03/13 09:48:51;;;;;;;0.65;0.60;;;;;;;18.83;51.75;96016.44;5073379;28;20241;-58
2023/03/13 09:51:21;;;;;;;1.20;0.73;;;;;;;18.93;49.74;96003.44;5073872;28;20214;-56
2023/03/13 09:53:53;;;;;;;0.80;0.73;;;;;;;19.25;49.68;95996.31;5073589;28;20529;-56
2023/03/13 09:56:24;;;;;;;1.23;0.55;;;;;;;19.47;49.89;95981.63;5073439;28;20635;-57
2023/03/13 09:58:54;;;;;;;1.77;0.63;;;;;;;19.98;47.39;95986.84;5073612;28;20190;-56
2023/03/13 10:01:24;;;;;;;0.70;0.70;;;;;;;19.43;47.19;95985.75;5071540;28;20218;-57
2023/03/13 10:03:59;;;;;;;1.13;0.70;;;;;;;19.71;47.75;95964.75;5074026;28;20217;-56
2023/03/13 10:06:28;;;;;;;2.10;0.80;;;;;;;20.49;47.90;95965.22;5073586;28;20222;-57
2023/03/13 10:09:00;;;;;;;1.55;0.63;;;;;;;20.43;47.22;95965.28;5073941;28;20211;-57
2023/03/13 10:11:28;;;;;;;1.60;0.70;;;;;;;20.37;46.98;95956.22;5072714;28;20190;-57
2023/03/13 10:14:00;;;;;;;2.78;0.88;;;;;;;20.95;46.37;95945.91;5073557;28;20619;-57
2023/03/13 10:16:28;;;;;;;1.00;0.70;;;;;;;20.25;46.04;95949.91;5073003;28;20233;-56
2023/03/13 10:18:57;;;;;;;0.80;0.80;;;;;;;20.23;46.03;95944.75;5074104;28;20210;-57
2023/03/13 10:21:26;;;;;;;1.17;0.73;;;;;;;20.24;46.41;95948.25;5072971;28;20214;-57
2023/03/13 10:23:57;;;;;;;2.00;1.00;;;;;;;19.94;46.75;95947.28;5073124;28;20222;-56
2023/03/13 10:26:27;;;;;;;2.78;1.50;;;;;;;19.70;47.64;95930.91;5074452;28;20205;-57
2023/03/13 10:28:55;;;;;;;3.22;1.58;;;;;;;19.53;49.39;95923.59;5078775;28;20202;-57
2023/03/13 10:31:26;;;;;;;1.00;0.90;;;;;;;19.73;48.43;95910.91;5079146;28;20256;-57
2023/03/13 10:33:53;;;;;;;1.90;1.00;;;;;;;19.59;51.07;95907.47;5085012;28;20191;-59
2023/03/13 10:36:19;;;;;;;1.48;0.73;;;;;;;19.49;50.26;95915.16;5075804;28;20206;-58
2023/03/13 10:38:48;;;;;;;0.68;0.55;;;;;;;19.57;51.93;95920.28;5072962;28;20215;-57
2023/03/13 10:41:27;;;;;;;1.77;0.80;;;;;;;19.73;51.43;95917.06;5073073;28;20206;-57
2023/03/13 10:43:55;;;;;;;1.58;0.68;;;;;;;20.34;51.50;95909.16;5072978;28;20210;-57
2023/03/13 10:46:26;;;;;;;0.93;0.70;;;;;;;20.91;51.89;95900.88;5073878;28;20206;-57
2023/03/13 10:48:55;;;;;;;0.80;0.68;;;;;;;21.12;50.13;95892.38;5074160;28;20245;-56
2023/03/13 10:51:22;;;;;;;0.75;0.70;;;;;;;21.33;46.59;95883.81;5071876;28;20333;-57
2023/03/13 10:53:50;;;;;;;1.00;0.75;;;;;;;21.55;45.53;95876.88;5071527;28;20229;-57
2023/03/13 10:56:23;;;;;;;1.58;0.52;;;;;;;21.82;46.94;95878.09;5072199;28;20221;-57
2023/03/13 10:58:52;;;;;;;3.08;0.80;;;;;;;21.79;45.44;95872.34;5071700;28;20206;-56
2023/03/13 11:01:21;;;;;;;0.70;0.60;;;;;;;21.86;45.84;95866.91;5070908;28;20207;-57
2023/03/13 11:03:49;;;;;;;0.60;0.60;;;;;;;21.67;45.60;95850.84;5071543;28;20258;-57
2023/03/13 11:06:26;;;;;;;0.65;0.65;;;;;;;21.79;47.37;95851.66;5071147;28;20203;-57
2023/03/13 11:08:59;;;;;;;0.77;0.60;;;;;;;21.81;47.06;95848.75;5072308;28;20203;-58
2023/03/13 11:11:29;;;;;;;1.10;0.70;;;;;;;22.21;48.65;95851.63;5071140;28;20228;-56
2023/03/13 11:14:08;;;;;;;0.60;0.60;;;;;;;22.21;45.67;95840.84;5072776;28;20209;-56
2023/03/13 11:16:39;;;;;;;2.25;0.60;;;;;;;22.40;46.10;95825.34;5072311;28;20232;-56
2023/03/13 11:19:25;;;;;;;0.63;0.57;;;;;;;22.84;45.20;95822.00;5071201;28;20195;-58
2023/03/13 11:22:00;;;;;;;0.50;0.50;;;;;;;22.44;44.30;95819.25;5071897;28;20206;-57
2023/03/13 11:24:34;;;;;;;0.47;0.47;;;;;;;22.77;45.97;95816.75;5070615;28;20677;-57
2023/03/13 11:27:10;;;;;;;0.80;0.60;;;;;;;23.05;45.72;95804.34;5071689;28;20206;-57
2023/03/13 11:29:44;;;;;;;0.52;0.52;;;;;;;22.89;45.41;95808.59;5071540;28;20218;-57
2023/03/13 11:32:20;;;;;;;1.20;0.75;;;;;;;22.86;45.15;95805.56;5071282;28;20210;-57
2023/03/13 11:34:51;;;;;;;0.50;0.50;;;;;;;22.85;43.87;95799.34;5071764;28;20281;-58
2023/03/13 11:37:19;;;;;;;0.70;0.70;;;;;;;23.27;41.43;95794.50;5070359;28;20264;-57
2023/03/13 11:39:58;;;;;;;1.05;0.60;;;;;;;23.32;43.67;95789.19;5071714;28;20198;-58